sensor_id;sensor_type;location;lat;lon;timestamp;P1;durP1;ratioP1;P2;durP2;ratioP2
21281;SDS011;10800;53.096;18.328;2023-06-05T00:04:07;0.70;;;0.63;;
21281;SDS011;10800;53.096;18.328;2023-06-05T00:09:14;2.57;;;1.40;;
21281;SDS011;10800;53.096;18.328;2023-06-05T00:14:22;1.23;;;0.97;;
21281;SDS011;10800;53.096;18.328;2023-06-05T00:19:29;1.63;;;1.00;;
21281;SDS011;10800;53.096;18.328;2023-06-05T00:24:35;2.63;;;1.40;;
21281;SDS011;10800;53.096;18.328;2023-06-05T00:29:40;3.17;;;1.40;;
21281;SDS011;10800;53.096;18.328;2023-06-05T00:34:49;1.83;;;1.00;;
21281;SDS011;10800;53.096;18.328;2023-06-05T00:39:56;3.43;;;1.37;;
21281;SDS011;10800;53.096;18.328;2023-06-05T00:45:03;1.23;;;1.03;;
21281;SDS011;10800;53.096;18.328;2023-06-05T00:50:09;1.73;;;1.00;;
21281;SDS011;10800;53.096;18.328;2023-06-05T00:55:18;2.40;;;1.10;;
21281;SDS011;10800;53.096;18.328;2023-06-05T01:00:25;4.03;;;1.43;;
21281;SDS011;10800;53.096;18.328;2023-06-05T01:05:32;3.07;;;1.30;;
21281;SDS011;10800;53.096;18.328;2023-06-05T01:10:37;6.03;;;1.13;;
21281;SDS011;10800;53.096;18.328;2023-06-05T01:15:43;2.17;;;0.90;;
21281;SDS011;10800;53.096;18.328;2023-06-05T01:20:51;1.57;;;0.70;;
21281;SDS011;10800;53.096;18.328;2023-06-05T01:26:00;2.10;;;0.80;;
21281;SDS011;10800;53.096;18.328;2023-06-05T01:31:10;1.30;;;1.03;;
21281;SDS011;10800;53.096;18.328;2023-06-05T01:36:20;1.17;;;1.03;;
21281;SDS011;10800;53.096;18.328;2023-06-05T01:41:26;1.37;;;1.17;;
21281;SDS011;10800;53.096;18.328;2023-06-05T01:46:36;1.50;;;0.90;;
21281;SDS011;10800;53.096;18.328;2023-06-05T01:51:43;2.53;;;1.23;;
21281;SDS011;10800;53.096;18.328;2023-06-05T01:56:51;1.20;;;1.00;;
21281;SDS011;10800;53.096;18.328;2023-06-05T02:02:00;0.70;;;0.70;;
21281;SDS011;10800;53.096;18.328;2023-06-05T02:07:08;1.83;;;1.30;;
21281;SDS011;10800;53.096;18.328;2023-06-05T02:12:15;2.87;;;1.30;;
21281;SDS011;10800;53.096;18.328;2023-06-05T02:17:22;4.43;;;1.10;;
21281;SDS011;10800;53.096;18.328;2023-06-05T02:22:36;2.87;;;1.50;;
21281;SDS011;10800;53.096;18.328;2023-06-05T02:27:42;3.17;;;1.30;;
21281;SDS011;10800;53.096;18.328;2023-06-05T02:32:49;2.33;;;0.70;;
21281;SDS011;10800;53.096;18.328;2023-06-05T02:38:03;1.40;;;1.30;;
21281;SDS011;10800;53.096;18.328;2023-06-05T02:43:10;2.27;;;1.00;;
21281;SDS011;10800;53.096;18.328;2023-06-05T02:48:17;7.20;;;1.30;;
21281;SDS011;10800;53.096;18.328;2023-06-05T02:53:23;5.73;;;1.60;;
21281;SDS011;10800;53.096;18.328;2023-06-05T02:58:28;1.87;;;1.33;;
21281;SDS011;10800;53.096;18.328;2023-06-05T03:03:35;3.00;;;1.53;;
21281;SDS011;10800;53.096;18.328;2023-06-05T03:08:41;5.27;;;1.50;;
21281;SDS011;10800;53.096;18.328;2023-06-05T03:13:47;2.87;;;1.67;;
21281;SDS011;10800;53.096;18.328;2023-06-05T03:18:52;2.43;;;1.30;;
21281;SDS011;10800;53.096;18.328;2023-06-05T03:23:59;4.63;;;1.73;;
21281;SDS011;10800;53.096;18.328;2023-06-05T03:29:05;11.90;;;1.97;;
21281;SDS011;10800;53.096;18.328;2023-06-05T03:34:11;1.87;;;1.43;;
21281;SDS011;10800;53.096;18.328;2023-06-05T03:39:17;12.33;;;1.67;;
21281;SDS011;10800;53.096;18.328;2023-06-05T03:44:22;5.00;;;1.80;;
21281;SDS011;10800;53.096;18.328;2023-06-05T03:49:28;5.43;;;1.90;;
21281;SDS011;10800;53.096;18.328;2023-06-05T03:54:34;9.27;;;2.53;;
21281;SDS011;10800;53.096;18.328;2023-06-05T03:59:40;3.13;;;1.63;;
21281;SDS011;10800;53.096;18.328;2023-06-05T04:04:46;8.37;;;2.03;;
21281;SDS011;10800;53.096;18.328;2023-06-05T04:09:54;8.50;;;2.30;;
21281;SDS011;10800;53.096;18.328;2023-06-05T04:15:00;1.57;;;1.30;;
21281;SDS011;10800;53.096;18.328;2023-06-05T04:20:06;3.80;;;1.80;;
21281;SDS011;10800;53.096;18.328;2023-06-05T04:25:14;3.70;;;1.43;;
21281;SDS011;10800;53.096;18.328;2023-06-05T04:30:20;7.07;;;1.40;;
21281;SDS011;10800;53.096;18.328;2023-06-05T04:35:25;4.70;;;1.90;;
21281;SDS011;10800;53.096;18.328;2023-06-05T04:40:31;2.07;;;1.50;;
21281;SDS011;10800;53.096;18.328;2023-06-05T04:45:37;2.80;;;1.90;;
21281;SDS011;10800;53.096;18.328;2023-06-05T04:50:43;2.63;;;1.57;;
21281;SDS011;10800;53.096;18.328;2023-06-05T04:55:48;3.03;;;1.53;;
21281;SDS011;10800;53.096;18.328;2023-06-05T05:00:55;10.77;;;1.73;;
21281;SDS011;10800;53.096;18.328;2023-06-05T05:06:03;3.90;;;2.23;;
21281;SDS011;10800;53.096;18.328;2023-06-05T05:11:08;2.97;;;1.90;;
21281;SDS011;10800;53.096;18.328;2023-06-05T05:16:14;5.73;;;1.93;;
21281;SDS011;10800;53.096;18.328;2023-06-05T05:21:19;3.07;;;1.63;;
21281;SDS011;10800;53.096;18.328;2023-06-05T05:26:25;2.43;;;1.67;;
21281;SDS011;10800;53.096;18.328;2023-06-05T05:31:30;4.30;;;1.77;;
21281;SDS011;10800;53.096;18.328;2023-06-05T05:36:36;5.47;;;1.90;;
21281;SDS011;10800;53.096;18.328;2023-06-05T05:41:41;6.87;;;2.00;;
21281;SDS011;10800;53.096;18.328;2023-06-05T05:46:46;6.73;;;2.10;;
21281;SDS011;10800;53.096;18.328;2023-06-05T05:51:52;5.83;;;1.93;;
21281;SDS011;10800;53.096;18.328;2023-06-05T05:56:57;5.50;;;2.50;;
21281;SDS011;10800;53.096;18.328;2023-06-05T06:02:03;2.17;;;1.43;;
21281;SDS011;10800;53.096;18.328;2023-06-05T06:07:10;3.33;;;2.10;;
21281;SDS011;10800;53.096;18.328;2023-06-05T06:12:16;3.77;;;1.63;;
21281;SDS011;10800;53.096;18.328;2023-06-05T06:17:21;6.83;;;2.23;;
21281;SDS011;10800;53.096;18.328;2023-06-05T06:22:27;1.40;;;1.27;;
21281;SDS011;10800;53.096;18.328;2023-06-05T06:27:33;8.20;;;1.73;;
21281;SDS011;10800;53.096;18.328;2023-06-05T06:32:38;7.33;;;2.00;;
21281;SDS011;10800;53.096;18.328;2023-06-05T06:37:44;8.07;;;3.00;;
21281;SDS011;10800;53.096;18.328;2023-06-05T06:42:50;19.97;;;4.30;;
21281;SDS011;10800;53.096;18.328;2023-06-05T06:47:56;4.30;;;1.83;;
21281;SDS011;10800;53.096;18.328;2023-06-05T06:53:03;7.55;;;1.70;;
21281;SDS011;10800;53.096;18.328;2023-06-05T06:58:08;3.97;;;1.30;;
21281;SDS011;10800;53.096;18.328;2023-06-05T07:03:14;6.05;;;1.22;;
21281;SDS011;10800;53.096;18.328;2023-06-05T07:08:20;5.70;;;1.10;;
21281;SDS011;10800;53.096;18.328;2023-06-05T07:13:25;3.70;;;1.27;;
21281;SDS011;10800;53.096;18.328;2023-06-05T07:18:31;2.60;;;1.15;;
21281;SDS011;10800;53.096;18.328;2023-06-05T07:23:36;8.45;;;1.10;;
21281;SDS011;10800;53.096;18.328;2023-06-05T07:28:43;2.35;;;0.90;;
21281;SDS011;10800;53.096;18.328;2023-06-05T07:33:50;1.42;;;0.90;;
21281;SDS011;10800;53.096;18.328;2023-06-05T07:38:56;1.25;;;0.88;;
21281;SDS011;10800;53.096;18.328;2023-06-05T07:44:01;1.55;;;1.00;;
21281;SDS011;10800;53.096;18.328;2023-06-05T07:49:06;3.70;;;0.95;;
21281;SDS011;10800;53.096;18.328;2023-06-05T07:54:13;1.20;;;0.90;;
21281;SDS011;10800;53.096;18.328;2023-06-05T07:59:24;1.10;;;0.70;;
21281;SDS011;10800;53.096;18.328;2023-06-05T08:04:31;1.75;;;0.68;;
21281;SDS011;10800;53.096;18.328;2023-06-05T08:09:39;1.25;;;0.60;;
21281;SDS011;10800;53.096;18.328;2023-06-05T08:14:48;2.40;;;0.93;;
21281;SDS011;10800;53.096;18.328;2023-06-05T08:19:54;0.68;;;0.65;;
21281;SDS011;10800;53.096;18.328;2023-06-05T08:25:00;0.78;;;0.78;;
21281;SDS011;10800;53.096;18.328;2023-06-05T08:30:07;0.80;;;0.60;;
21281;SDS011;10800;53.096;18.328;2023-06-05T08:35:13;1.30;;;0.60;;
21281;SDS011;10800;53.096;18.328;2023-06-05T08:40:19;0.60;;;0.60;;
21281;SDS011;10800;53.096;18.328;2023-06-05T08:45:26;3.33;;;0.75;;
21281;SDS011;10800;53.096;18.328;2023-06-05T08:50:33;0.70;;;0.70;;
21281;SDS011;10800;53.096;18.328;2023-06-05T08:55:44;0.47;;;0.47;;
21281;SDS011;10800;53.096;18.328;2023-06-05T09:00:53;1.15;;;0.80;;
21281;SDS011;10800;53.096;18.328;2023-06-05T09:05:59;1.55;;;0.90;;
21281;SDS011;10800;53.096;18.328;2023-06-05T09:11:25;2.92;;;1.22;;
21281;SDS011;10800;53.096;18.328;2023-06-05T09:16:36;0.50;;;0.50;;
21281;SDS011;10800;53.096;18.328;2023-06-05T09:21:51;6.25;;;2.98;;
21281;SDS011;10800;53.096;18.328;2023-06-05T09:26:59;1.37;;;0.88;;
21281;SDS011;10800;53.096;18.328;2023-06-05T09:32:06;1.55;;;1.10;;
21281;SDS011;10800;53.096;18.328;2023-06-05T09:37:13;1.12;;;0.70;;
21281;SDS011;10800;53.096;18.328;2023-06-05T09:42:30;0.82;;;0.70;;
21281;SDS011;10800;53.096;18.328;2023-06-05T09:47:27;1.42;;;0.65;;
21281;SDS011;10800;53.096;18.328;2023-06-05T09:52:34;1.22;;;0.75;;
21281;SDS011;10800;53.096;18.328;2023-06-05T09:57:43;2.25;;;1.00;;
21281;SDS011;10800;53.096;18.328;2023-06-05T10:02:50;1.50;;;0.95;;
21281;SDS011;10800;53.096;18.328;2023-06-05T10:07:59;1.95;;;0.93;;
21281;SDS011;10800;53.096;18.328;2023-06-05T10:13:05;1.07;;;0.85;;
21281;SDS011;10800;53.096;18.328;2023-06-05T10:18:11;2.83;;;0.65;;
21281;SDS011;10800;53.096;18.328;2023-06-05T10:23:17;2.90;;;0.72;;
21281;SDS011;10800;53.096;18.328;2023-06-05T10:34:03;0.98;;;0.70;;
21281;SDS011;10800;53.096;18.328;2023-06-05T10:39:10;2.15;;;0.98;;
21281;SDS011;10800;53.096;18.328;2023-06-05T10:44:18;1.05;;;0.90;;
21281;SDS011;10800;53.096;18.328;2023-06-05T10:49:25;1.57;;;0.80;;
21281;SDS011;10800;53.096;18.328;2023-06-05T10:59:41;1.77;;;0.90;;
21281;SDS011;10800;53.096;18.328;2023-06-05T11:25:54;4.33;;;1.55;;
21281;SDS011;10800;53.096;18.328;2023-06-05T11:31:00;1.75;;;0.95;;
21281;SDS011;10800;53.096;18.328;2023-06-05T11:36:06;2.10;;;0.80;;
21281;SDS011;10800;53.096;18.328;2023-06-05T11:41:12;0.80;;;0.70;;
21281;SDS011;10800;53.096;18.328;2023-06-05T11:46:18;1.77;;;0.90;;
21281;SDS011;10800;53.096;18.328;2023-06-05T11:51:24;2.72;;;0.93;;
21281;SDS011;10800;53.096;18.328;2023-06-05T11:56:33;1.35;;;0.80;;
21281;SDS011;10800;53.096;18.328;2023-06-05T12:01:38;0.93;;;0.80;;
21281;SDS011;10800;53.096;18.328;2023-06-05T12:06:46;0.88;;;0.72;;
21281;SDS011;10800;53.096;18.328;2023-06-05T12:11:57;3.02;;;0.62;;
21281;SDS011;10800;53.096;18.328;2023-06-05T12:17:10;1.35;;;0.98;;
21281;SDS011;10800;53.096;18.328;2023-06-05T12:22:16;0.80;;;0.60;;
21281;SDS011;10800;53.096;18.328;2023-06-05T12:27:29;2.60;;;1.00;;
21281;SDS011;10800;53.096;18.328;2023-06-05T12:32:37;3.30;;;1.07;;
21281;SDS011;10800;53.096;18.328;2023-06-05T12:37:43;1.45;;;0.62;;
21281;SDS011;10800;53.096;18.328;2023-06-05T12:42:51;1.55;;;0.95;;
21281;SDS011;10800;53.096;18.328;2023-06-05T12:47:57;1.15;;;0.90;;
21281;SDS011;10800;53.096;18.328;2023-06-05T12:53:02;3.25;;;1.02;;
21281;SDS011;10800;53.096;18.328;2023-06-05T12:58:08;1.45;;;0.90;;
21281;SDS011;10800;53.096;18.328;2023-06-05T13:03:13;2.22;;;1.07;;
21281;SDS011;10800;53.096;18.328;2023-06-05T13:08:20;1.82;;;1.47;;
21281;SDS011;10800;53.096;18.328;2023-06-05T13:13:28;1.00;;;0.68;;
21281;SDS011;10800;53.096;18.328;2023-06-05T13:18:34;2.15;;;0.93;;
21281;SDS011;10800;53.096;18.328;2023-06-05T13:23:40;3.47;;;1.10;;
21281;SDS011;10800;53.096;18.328;2023-06-05T13:28:46;8.38;;;1.32;;
21281;SDS011;10800;53.096;18.328;2023-06-05T13:33:52;1.32;;;1.02;;
21281;SDS011;10800;53.096;18.328;2023-06-05T13:38:57;1.32;;;1.20;;
21281;SDS011;10800;53.096;18.328;2023-06-05T13:44:03;1.22;;;0.80;;
21281;SDS011;10800;53.096;18.328;2023-06-05T13:49:08;2.35;;;1.07;;
21281;SDS011;10800;53.096;18.328;2023-06-05T13:54:15;1.10;;;0.75;;
21281;SDS011;10800;53.096;18.328;2023-06-05T13:59:20;0.82;;;0.80;;
21281;SDS011;10800;53.096;18.328;2023-06-05T14:04:26;0.60;;;0.60;;
21281;SDS011;10800;53.096;18.328;2023-06-05T14:09:32;1.42;;;0.80;;
21281;SDS011;10800;53.096;18.328;2023-06-05T14:19:57;2.50;;;1.20;;
21281;SDS011;10800;53.096;18.328;2023-06-05T14:25:03;4.67;;;1.25;;
21281;SDS011;10800;53.096;18.328;2023-06-05T14:30:10;2.25;;;1.00;;
21281;SDS011;10800;53.096;18.328;2023-06-05T14:35:16;1.95;;;1.75;;
21281;SDS011;10800;53.096;18.328;2023-06-05T14:40:23;3.33;;;1.10;;
21281;SDS011;10800;53.096;18.328;2023-06-05T14:45:29;3.42;;;1.00;;
21281;SDS011;10800;53.096;18.328;2023-06-05T14:50:34;2.37;;;1.27;;
21281;SDS011;10800;53.096;18.328;2023-06-05T14:55:40;4.33;;;1.07;;
21281;SDS011;10800;53.096;18.328;2023-06-05T15:00:46;1.30;;;1.00;;
21281;SDS011;10800;53.096;18.328;2023-06-05T15:05:54;2.45;;;1.30;;
21281;SDS011;10800;53.096;18.328;2023-06-05T15:11:01;2.70;;;0.90;;
21281;SDS011;10800;53.096;18.328;2023-06-05T15:16:06;2.27;;;1.10;;
21281;SDS011;10800;53.096;18.328;2023-06-05T15:21:12;1.90;;;1.30;;
21281;SDS011;10800;53.096;18.328;2023-06-05T15:26:18;2.33;;;0.93;;
21281;SDS011;10800;53.096;18.328;2023-06-05T15:31:24;0.70;;;0.70;;
21281;SDS011;10800;53.096;18.328;2023-06-05T15:36:30;0.98;;;0.85;;
21281;SDS011;10800;53.096;18.328;2023-06-05T15:41:35;1.20;;;1.00;;
21281;SDS011;10800;53.096;18.328;2023-06-05T15:46:41;1.52;;;1.10;;
21281;SDS011;10800;53.096;18.328;2023-06-05T15:51:46;1.87;;;1.30;;
21281;SDS011;10800;53.096;18.328;2023-06-05T15:57:02;5.72;;;1.00;;
21281;SDS011;10800;53.096;18.328;2023-06-05T16:02:08;1.07;;;0.98;;
21281;SDS011;10800;53.096;18.328;2023-06-05T16:07:14;1.02;;;0.93;;
21281;SDS011;10800;53.096;18.328;2023-06-05T16:12:20;2.58;;;1.05;;
21281;SDS011;10800;53.096;18.328;2023-06-05T16:17:26;1.35;;;1.05;;
21281;SDS011;10800;53.096;18.328;2023-06-05T16:22:31;1.37;;;0.70;;
21281;SDS011;10800;53.096;18.328;2023-06-05T16:27:37;3.02;;;1.00;;
21281;SDS011;10800;53.096;18.328;2023-06-05T16:32:43;2.90;;;1.12;;
21281;SDS011;10800;53.096;18.328;2023-06-05T16:37:50;1.57;;;1.15;;
21281;SDS011;10800;53.096;18.328;2023-06-05T16:42:55;3.50;;;2.30;;
21281;SDS011;10800;53.096;18.328;2023-06-05T16:48:01;2.40;;;0.95;;
21281;SDS011;10800;53.096;18.328;2023-06-05T16:53:07;5.47;;;0.95;;
21281;SDS011;10800;53.096;18.328;2023-06-05T16:58:14;1.40;;;1.05;;
21281;SDS011;10800;53.096;18.328;2023-06-05T17:03:21;4.53;;;1.25;;
21281;SDS011;10800;53.096;18.328;2023-06-05T17:08:28;1.65;;;1.30;;
21281;SDS011;10800;53.096;18.328;2023-06-05T17:13:34;1.57;;;1.12;;
21281;SDS011;10800;53.096;18.328;2023-06-05T17:18:39;1.20;;;0.78;;
21281;SDS011;10800;53.096;18.328;2023-06-05T17:23:45;2.47;;;1.07;;
21281;SDS011;10800;53.096;18.328;2023-06-05T17:28:52;0.78;;;0.78;;
21281;SDS011;10800;53.096;18.328;2023-06-05T17:33:59;1.05;;;0.60;;
21281;SDS011;10800;53.096;18.328;2023-06-05T17:39:04;3.10;;;1.12;;
21281;SDS011;10800;53.096;18.328;2023-06-05T17:44:10;2.72;;;0.93;;
21281;SDS011;10800;53.096;18.328;2023-06-05T17:49:17;3.85;;;1.10;;
21281;SDS011;10800;53.096;18.328;2023-06-05T17:54:23;2.33;;;1.30;;
21281;SDS011;10800;53.096;18.328;2023-06-05T17:59:30;3.85;;;1.40;;
21281;SDS011;10800;53.096;18.328;2023-06-05T18:04:35;7.72;;;1.70;;
21281;SDS011;10800;53.096;18.328;2023-06-05T18:09:41;6.80;;;1.30;;
21281;SDS011;10800;53.096;18.328;2023-06-05T18:14:47;1.85;;;0.98;;
21281;SDS011;10800;53.096;18.328;2023-06-05T18:19:53;4.47;;;1.40;;
21281;SDS011;10800;53.096;18.328;2023-06-05T18:24:59;4.00;;;1.47;;
21281;SDS011;10800;53.096;18.328;2023-06-05T18:30:04;7.75;;;1.90;;
21281;SDS011;10800;53.096;18.328;2023-06-05T18:35:11;3.00;;;1.65;;
21281;SDS011;10800;53.096;18.328;2023-06-05T18:40:17;4.85;;;2.72;;
21281;SDS011;10800;53.096;18.328;2023-06-05T18:45:22;2.27;;;1.60;;
21281;SDS011;10800;53.096;18.328;2023-06-05T18:50:28;5.90;;;2.52;;
21281;SDS011;10800;53.096;18.328;2023-06-05T18:55:34;5.97;;;2.55;;
21281;SDS011;10800;53.096;18.328;2023-06-05T19:00:40;9.65;;;2.67;;
21281;SDS011;10800;53.096;18.328;2023-06-05T19:05:45;1.92;;;1.40;;
21281;SDS011;10800;53.096;18.328;2023-06-05T19:10:52;3.58;;;1.85;;
21281;SDS011;10800;53.096;18.328;2023-06-05T19:15:57;5.47;;;2.50;;
21281;SDS011;10800;53.096;18.328;2023-06-05T19:21:03;5.23;;;2.70;;
21281;SDS011;10800;53.096;18.328;2023-06-05T19:26:10;3.65;;;2.30;;
21281;SDS011;10800;53.096;18.328;2023-06-05T19:31:15;2.60;;;1.47;;
21281;SDS011;10800;53.096;18.328;2023-06-05T19:36:21;4.40;;;2.17;;
21281;SDS011;10800;53.096;18.328;2023-06-05T19:41:27;4.97;;;1.90;;
21281;SDS011;10800;53.096;18.328;2023-06-05T19:46:36;8.43;;;1.97;;
21281;SDS011;10800;53.096;18.328;2023-06-05T19:51:41;5.03;;;2.33;;
21281;SDS011;10800;53.096;18.328;2023-06-05T19:56:47;5.63;;;2.27;;
21281;SDS011;10800;53.096;18.328;2023-06-05T20:01:54;5.90;;;2.27;;
21281;SDS011;10800;53.096;18.328;2023-06-05T20:06:59;4.97;;;2.13;;
21281;SDS011;10800;53.096;18.328;2023-06-05T20:12:05;6.47;;;2.43;;
21281;SDS011;10800;53.096;18.328;2023-06-05T20:17:11;3.60;;;2.20;;
21281;SDS011;10800;53.096;18.328;2023-06-05T20:22:18;6.37;;;2.47;;
21281;SDS011;10800;53.096;18.328;2023-06-05T20:27:24;6.23;;;2.43;;
21281;SDS011;10800;53.096;18.328;2023-06-05T20:32:29;5.67;;;2.73;;
21281;SDS011;10800;53.096;18.328;2023-06-05T20:37:35;4.60;;;2.77;;
21281;SDS011;10800;53.096;18.328;2023-06-05T20:42:41;8.60;;;2.83;;
21281;SDS011;10800;53.096;18.328;2023-06-05T20:47:48;8.93;;;2.73;;
21281;SDS011;10800;53.096;18.328;2023-06-05T20:52:55;7.20;;;2.87;;
21281;SDS011;10800;53.096;18.328;2023-06-05T20:58:02;5.47;;;2.50;;
21281;SDS011;10800;53.096;18.328;2023-06-05T21:03:08;9.03;;;3.93;;
21281;SDS011;10800;53.096;18.328;2023-06-05T21:08:14;7.83;;;4.30;;
21281;SDS011;10800;53.096;18.328;2023-06-05T21:13:19;9.37;;;3.97;;
21281;SDS011;10800;53.096;18.328;2023-06-05T21:18:24;22.73;;;5.53;;
21281;SDS011;10800;53.096;18.328;2023-06-05T21:23:30;17.93;;;4.47;;
21281;SDS011;10800;53.096;18.328;2023-06-05T21:28:36;15.23;;;3.97;;
21281;SDS011;10800;53.096;18.328;2023-06-05T21:33:41;7.03;;;3.23;;
21281;SDS011;10800;53.096;18.328;2023-06-05T21:38:47;11.37;;;2.77;;
21281;SDS011;10800;53.096;18.328;2023-06-05T21:43:52;6.83;;;3.50;;
21281;SDS011;10800;53.096;18.328;2023-06-05T21:48:58;7.87;;;3.23;;
21281;SDS011;10800;53.096;18.328;2023-06-05T21:54:03;10.43;;;3.77;;
21281;SDS011;10800;53.096;18.328;2023-06-05T21:59:09;6.57;;;3.10;;
21281;SDS011;10800;53.096;18.328;2023-06-05T22:04:14;14.90;;;4.07;;
21281;SDS011;10800;53.096;18.328;2023-06-05T22:09:20;8.20;;;3.37;;
21281;SDS011;10800;53.096;18.328;2023-06-05T22:14:26;20.37;;;4.10;;
21281;SDS011;10800;53.096;18.328;2023-06-05T22:19:32;19.70;;;6.00;;
21281;SDS011;10800;53.096;18.328;2023-06-05T22:24:40;20.30;;;6.67;;
21281;SDS011;10800;53.096;18.328;2023-06-05T22:29:45;25.07;;;7.00;;
21281;SDS011;10800;53.096;18.328;2023-06-05T22:34:51;17.67;;;5.23;;
21281;SDS011;10800;53.096;18.328;2023-06-05T22:39:57;5.87;;;3.07;;
21281;SDS011;10800;53.096;18.328;2023-06-05T22:45:03;7.13;;;2.83;;
21281;SDS011;10800;53.096;18.328;2023-06-05T22:50:09;8.03;;;2.90;;
21281;SDS011;10800;53.096;18.328;2023-06-05T22:55:15;3.10;;;2.43;;
21281;SDS011;10800;53.096;18.328;2023-06-05T23:00:20;11.90;;;2.90;;
21281;SDS011;10800;53.096;18.328;2023-06-05T23:05:26;4.03;;;2.10;;
21281;SDS011;10800;53.096;18.328;2023-06-05T23:10:33;8.00;;;2.93;;
21281;SDS011;10800;53.096;18.328;2023-06-05T23:15:38;16.53;;;3.03;;
21281;SDS011;10800;53.096;18.328;2023-06-05T23:20:48;5.70;;;2.20;;
21281;SDS011;10800;53.096;18.328;2023-06-05T23:25:54;3.17;;;2.40;;
21281;SDS011;10800;53.096;18.328;2023-06-05T23:31:00;7.13;;;2.73;;
21281;SDS011;10800;53.096;18.328;2023-06-05T23:36:06;4.07;;;2.63;;
21281;SDS011;10800;53.096;18.328;2023-06-05T23:41:11;4.23;;;2.97;;
21281;SDS011;10800;53.096;18.328;2023-06-05T23:46:17;4.67;;;2.67;;
21281;SDS011;10800;53.096;18.328;2023-06-05T23:51:24;5.13;;;2.17;;
21281;SDS011;10800;53.096;18.328;2023-06-05T23:56:31;6.83;;;3.10;;
